Time;durP1;ratioP1;P1;durP2;ratioP2;P2;SDS_P1;SDS_P2;PMS_P1;PMS_P2;Temp;Humidity;BMP_temperature;BMP_pressure;BME280_temperature;BME280_humidity;BME280_pressure;Samples;Min_cycle;Max_cycle;Signal;HPM_P1;HPM_P2
2022/06/05 10:00:28;;;;;;;6.75;3.15;;;37.10;58.50;;;;;;4898434;29;20245;-95
2022/06/05 10:03:10;;;;;;;3.10;2.83;;;37.50;58.80;;;;;;4903628;29;20195;-95
2022/06/05 10:06:18;;;;;;;3.03;2.83;;;37.50;57.90;;;;;;4900902;29;20194;-95
2022/06/05 10:08:50;;;;;;;3.33;3.10;;;37.60;60.40;;;;;;4880510;29;20284;-94
2022/06/05 10:11:31;;;;;;;3.00;2.80;;;37.80;57.90;;;;;;4889683;29;20195;-92
2022/06/05 10:14:22;;;;;;;3.38;3.08;;;38.00;58.00;;;;;;4899558;29;20214;-93
2022/06/05 10:16:58;;;;;;;4.40;3.45;;;37.80;57.80;;;;;;4897854;29;20233;-94
2022/06/05 10:19:40;;;;;;;3.53;3.13;;;37.90;56.90;;;;;;4897969;29;20253;-93
2022/06/05 10:22:14;;;;;;;3.22;3.00;;;37.70;55.80;;;;;;4897832;29;20210;-93
2022/06/05 10:24:56;;;;;;;3.00;2.80;;;37.80;58.30;;;;;;4898229;29;20205;-94
2022/06/05 10:27:25;;;;;;;3.50;3.20;;;38.00;57.00;;;;;;4898472;29;20289;-93
2022/06/05 10:29:58;;;;;;;3.83;3.50;;;38.10;57.90;;;;;;4898612;29;20202;-94
2022/06/05 10:32:40;;;;;;;3.38;3.08;;;37.90;58.20;;;;;;4903127;29;20214;-93
2022/06/05 10:35:16;;;;;;;3.50;3.30;;;38.20;58.30;;;;;;4898961;29;20293;-94
2022/06/05 10:37:50;;;;;;;5.30;4.13;;;38.20;59.20;;;;;;4897538;29;20254;-94
2022/06/05 10:40:28;;;;;;;5.95;5.45;;;38.00;59.00;;;;;;4897369;29;20228;-94
2022/06/05 10:43:01;;;;;;;4.32;4.03;;;38.00;57.40;;;;;;4897782;29;20238;-94
2022/06/05 10:45:41;;;;;;;3.17;2.97;;;37.90;58.20;;;;;;4897326;29;20207;-93
2022/06/05 10:48:29;;;;;;;3.50;3.20;;;38.10;57.80;;;;;;4897783;29;20230;-94
2022/06/05 10:51:02;;;;;;;3.80;3.50;;;38.20;54.30;;;;;;4897210;29;20278;-94
2022/06/05 10:53:38;;;;;;;4.82;3.53;;;38.00;56.30;;;;;;4897721;29;20282;-94
2022/06/05 10:56:24;;;;;;;3.97;3.67;;;37.90;56.50;;;;;;4897150;29;20302;-94
2022/06/05 10:58:59;;;;;;;3.45;3.20;;;37.90;55.90;;;;;;4897044;29;20235;-92
2022/06/05 11:01:53;;;;;;;2.92;2.70;;;37.50;55.20;;;;;;4897017;29;20234;-94
2022/06/05 11:04:45;;;;;;;3.33;3.05;;;37.50;54.30;;;;;;4897244;29;20301;-93
2022/06/05 11:07:41;;;;;;;4.03;3.72;;;37.70;56.20;;;;;;4897206;29;20567;-94
2022/06/05 11:13:39;;;;;;;3.75;3.45;;;37.40;55.60;;;;;;4897250;29;20289;-94
2022/06/05 11:16:18;;;;;;;2.83;2.63;;;36.80;57.70;;;;;;4897259;29;20229;-94
2022/06/05 11:18:54;;;;;;;3.92;3.55;;;36.80;56.40;;;;;;4897299;29;20236;-94
2022/06/05 11:21:25;;;;;;;3.65;3.35;;;36.80;57.90;;;;;;4900211;29;20265;-94
2022/06/05 11:23:57;;;;;;;3.25;3.05;;;36.80;57.60;;;;;;4901196;29;20210;-94
2022/06/05 11:26:34;;;;;;;3.00;2.80;;;36.80;59.10;;;;;;4901059;29;20207;-94
2022/06/05 11:29:46;;;;;;;;;;;;;;;;;;;;;
2022/06/05 11:32:31;;;;;;;3.35;3.05;;;37.10;56.70;;;;;;4900359;29;20223;-95
2022/06/05 11:35:21;;;;;;;2.97;2.78;;;36.90;54.70;;;;;;4900659;29;20206;-94
2022/06/05 11:37:56;;;;;;;3.05;2.85;;;36.60;54.60;;;;;;4900746;29;20242;-94
2022/06/05 11:40:36;;;;;;;3.95;3.50;;;36.30;56.30;;;;;;4900564;29;20225;-94
2022/06/05 11:43:28;;;;;;;4.28;3.88;;;36.30;58.20;;;;;;4900825;29;20211;-94
2022/06/05 11:46:26;;;;;;;3.20;3.00;;;36.50;56.60;;;;;;4900302;29;20317;-94
2022/06/05 11:49:05;;;;;;;5.82;3.55;;;36.50;57.90;;;;;;4900152;29;20230;-94
2022/06/05 11:51:41;;;;;;;3.65;3.35;;;36.40;56.70;;;;;;4900517;29;20266;-94
2022/06/05 11:54:18;;;;;;;3.92;3.65;;;36.00;56.70;;;;;;4900468;29;20210;-93
2022/06/05 11:56:59;;;;;;;3.90;3.60;;;35.80;57.00;;;;;;4900066;29;20218;-94
2022/06/05 11:59:34;;;;;;;3.47;3.17;;;36.00;59.20;;;;;;4899832;29;20250;-93
2022/06/05 12:02:25;;;;;;;4.07;3.53;;;36.30;58.20;;;;;;4900029;29;20223;-94
2022/06/05 12:04:59;;;;;;;4.30;4.00;;;36.70;58.10;;;;;;4900357;29;20206;-94
2022/06/05 12:07:31;;;;;;;5.63;4.97;;;36.70;59.00;;;;;;4900457;29;20214;-96
2022/06/05 12:10:07;;;;;;;5.32;4.63;;;36.30;59.00;;;;;;4899989;29;20290;-95
2022/06/05 12:12:43;;;;;;;5.22;4.47;;;35.70;59.90;;;;;;4899990;29;20201;-94
2022/06/05 12:15:23;;;;;;;4.05;3.75;;;34.70;59.70;;;;;;4900217;29;20245;-94
2022/06/05 12:18:00;;;;;;;5.22;4.00;;;34.10;61.50;;;;;;4900112;29;20234;-94
2022/06/05 12:20:36;;;;;;;4.25;3.95;;;33.70;63.60;;;;;;4899670;29;20298;-94
2022/06/05 12:23:16;;;;;;;4.93;4.38;;;33.40;63.60;;;;;;4900262;29;20229;-94
2022/06/05 12:25:54;;;;;;;4.93;4.53;;;33.40;63.40;;;;;;4899871;29;20210;-94
2022/06/05 12:28:29;;;;;;;4.30;4.00;;;33.30;64.80;;;;;;4899600;29;20230;-94
2022/06/05 12:31:04;;;;;;;4.50;4.10;;;33.00;65.20;;;;;;4898707;29;20258;-93
2022/06/05 12:33:41;;;;;;;4.10;3.80;;;32.70;65.20;;;;;;4899630;29;20207;-94
2022/06/05 12:36:18;;;;;;;4.78;4.40;;;32.20;65.70;;;;;;4899611;29;20293;-94
2022/06/05 12:38:54;;;;;;;4.45;3.97;;;32.10;66.50;;;;;;4899833;29;20290;-94
2022/06/05 12:41:26;;;;;;;4.28;3.88;;;31.90;66.90;;;;;;4899538;29;20242;-94
2022/06/05 12:44:19;;;;;;;3.90;3.60;;;31.70;67.10;;;;;;4899559;29;20219;-94
2022/06/05 12:46:54;;;;;;;3.72;3.47;;;31.50;66.30;;;;;;4899405;29;20211;-94
2022/06/05 12:49:28;;;;;;;3.85;3.55;;;31.50;66.00;;;;;;4899348;29;20306;-93
2022/06/05 12:52:11;;;;;;;3.13;2.92;;;31.50;65.50;;;;;;4899399;29;20207;-94
2022/06/05 12:54:48;;;;;;;3.20;3.00;;;31.30;65.00;;;;;;4899467;29;20257;-94
2022/06/05 12:57:41;;;;;;;3.28;3.08;;;31.20;66.30;;;;;;4899182;29;20218;-95
2022/06/05 13:00:18;;;;;;;3.83;3.53;;;31.10;65.70;;;;;;4899197;29;20234;-93
2022/06/05 13:02:52;;;;;;;3.65;3.35;;;31.00;65.60;;;;;;4898790;29;20227;-94
2022/06/05 13:05:30;;;;;;;3.03;2.72;;;30.90;65.70;;;;;;4899019;29;20210;-94
2022/06/05 13:08:06;;;;;;;4.20;3.80;;;30.90;64.30;;;;;;4898991;29;20271;-94
2022/06/05 13:10:43;;;;;;;5.28;3.90;;;30.90;64.60;;;;;;4898968;29;20302;-93
2022/06/05 13:13:23;;;;;;;4.03;3.70;;;30.90;65.00;;;;;;4898805;29;20207;-94
2022/06/05 13:15:56;;;;;;;3.40;3.20;;;30.70;64.50;;;;;;4899150;29;20260;-93
2022/06/05 13:18:35;;;;;;;3.63;3.30;;;30.60;64.40;;;;;;4898916;29;20231;-93
2022/06/05 13:21:15;;;;;;;3.20;3.00;;;30.60;65.40;;;;;;4898685;29;20286;-94
2022/06/05 13:23:49;;;;;;;2.90;2.70;;;30.70;64.80;;;;;;4898756;29;20274;-93
2022/06/05 13:30:13;;;;;;;4.50;2.90;;;31.10;64.60;;;;;;4878950;29;20208;-94
2022/06/05 13:32:49;;;;;;;3.53;3.03;;;31.30;62.70;;;;;;4899028;29;20218;-93
2022/06/05 13:35:30;;;;;;;3.78;2.63;;;31.30;62.80;;;;;;4898659;29;20206;-94
2022/06/05 13:38:05;;;;;;;2.80;2.55;;;31.50;61.60;;;;;;4898610;29;20234;-94
2022/06/05 13:40:41;;;;;;;2.67;2.47;;;31.50;62.50;;;;;;4897978;29;20211;-94
2022/06/05 13:43:20;;;;;;;2.53;2.33;;;31.40;62.20;;;;;;4898129;29;20223;-94
2022/06/05 13:46:04;;;;;;;3.08;2.65;;;31.60;61.70;;;;;;4898548;29;20266;-94
2022/06/05 13:48:47;;;;;;;2.83;2.55;;;31.70;61.80;;;;;;4897836;29;20247;-95
2022/06/05 13:51:24;;;;;;;2.70;2.50;;;31.60;61.70;;;;;;4898111;29;20241;-94
2022/06/05 13:54:03;;;;;;;2.90;2.47;;;31.50;61.50;;;;;;4898255;29;20210;-94
2022/06/05 13:56:40;;;;;;;2.75;2.55;;;31.30;62.40;;;;;;4898102;29;20222;-93
2022/06/05 13:59:20;;;;;;;2.60;2.45;;;31.10;63.60;;;;;;4898007;29;20262;-93
2022/06/05 14:02:07;;;;;;;2.97;2.78;;;31.00;64.10;;;;;;4897917;29;20230;-94
2022/06/05 14:04:55;;;;;;;2.42;2.33;;;30.70;64.40;;;;;;4898253;29;20347;-93
2022/06/05 14:07:29;;;;;;;2.75;2.55;;;30.50;65.10;;;;;;4898076;29;20207;-94
2022/06/05 14:10:08;;;;;;;3.25;2.92;;;30.30;65.70;;;;;;4898134;29;20207;-94
2022/06/05 14:12:46;;;;;;;3.28;2.72;;;30.00;66.30;;;;;;4898039;29;20207;-94
2022/06/05 14:15:31;;;;;;;3.38;3.17;;;29.80;66.40;;;;;;4897491;29;20308;-93
2022/06/05 14:18:01;;;;;;;3.60;3.30;;;29.50;67.40;;;;;;4897816;29;20290;-94
2022/06/05 14:20:36;;;;;;;2.70;2.50;;;29.50;67.60;;;;;;4898259;29;20210;-93
2022/06/05 14:26:01;;;;;;;4.18;3.80;;;29.50;67.50;;;;;;4897567;29;20298;-94
2022/06/05 14:28:37;;;;;;;3.28;3.08;;;29.70;68.40;;;;;;4897571;29;20245;-93
2022/06/05 14:31:12;;;;;;;4.28;3.40;;;29.60;68.90;;;;;;4897744;29;20230;-93
2022/06/05 14:33:52;;;;;;;3.85;3.00;;;29.50;69.50;;;;;;4897928;29;20206;-93
2022/06/05 14:36:41;;;;;;;4.95;3.55;;;29.50;69.10;;;;;;4898070;29;20206;-93
2022/06/05 14:39:15;;;;;;;3.85;3.55;;;29.50;69.90;;;;;;4898116;29;20231;-93
2022/06/05 14:41:53;;;;;;;5.60;3.72;;;29.60;70.20;;;;;;4899471;29;20214;-93
2022/06/05 14:44:27;;;;;;;3.75;3.40;;;29.70;70.30;;;;;;4900633;29;20215;-93
2022/06/05 14:47:02;;;;;;;3.47;3.17;;;29.70;69.90;;;;;;4897875;29;20240;-94
2022/06/05 14:49:37;;;;;;;3.67;3.30;;;29.80;70.40;;;;;;4897908;29;20294;-92
2022/06/05 14:52:29;;;;;;;4.80;3.85;;;29.80;70.70;;;;;;4897481;29;20259;-93
2022/06/05 14:57:59;;;;;;;4.05;3.67;;;29.80;70.40;;;;;;4897456;29;20230;-93
2022/06/05 15:00:50;;;;;;;3.70;3.40;;;29.90;70.50;;;;;;4897591;29;20210;-93
2022/06/05 15:03:33;;;;;;;4.85;3.60;;;30.20;70.20;;;;;;4898560;29;20260;-93
2022/06/05 15:06:04;;;;;;;3.20;3.00;;;30.50;70.20;;;;;;4901555;29;20214;-93
2022/06/05 15:08:40;;;;;;;4.82;4.22;;;30.50;70.00;;;;;;4897547;29;20227;-93
2022/06/05 15:11:17;;;;;;;4.20;3.40;;;30.30;70.20;;;;;;4897425;29;20294;-93
2022/06/05 15:13:53;;;;;;;6.78;3.47;;;29.90;70.80;;;;;;4898041;29;20215;-93
2022/06/05 15:16:31;;;;;;;3.70;3.40;;;29.50;71.10;;;;;;4897739;29;20226;-94
2022/06/05 15:19:00;;;;;;;5.60;4.05;;;29.20;72.30;;;;;;4897376;29;20236;-92
2022/06/05 15:21:40;;;;;;;7.22;3.90;;;28.90;71.70;;;;;;4897062;29;20207;-93
2022/06/05 15:24:43;;;;;;;3.95;3.60;;;28.70;73.20;;;;;;4896824;29;20253;-93
2022/06/05 15:27:41;;;;;;;7.10;3.28;;;28.60;73.70;;;;;;4895824;29;20306;-93
2022/06/05 15:30:21;;;;;;;4.20;3.88;;;28.40;74.20;;;;;;4897101;29;20206;-92
2022/06/05 15:33:00;;;;;;;3.58;3.28;;;28.20;74.70;;;;;;4897006;29;20231;-93
2022/06/05 15:35:35;;;;;;;3.55;3.30;;;28.10;75.00;;;;;;4897089;29;20215;-93
2022/06/05 15:38:42;;;;;;;6.32;4.22;;;28.10;75.30;;;;;;4896783;29;20243;-93
2022/06/05 15:41:33;;;;;;;5.07;3.70;;;28.10;75.60;;;;;;4896792;29;20209;-93
2022/06/05 15:44:13;;;;;;;3.05;2.85;;;28.10;75.60;;;;;;4897130;29;20251;-92
2022/06/05 15:46:52;;;;;;;3.75;3.20;;;28.00;75.60;;;;;;4896875;29;20211;-92
2022/06/05 15:49:33;;;;;;;3.85;3.55;;;28.00;75.00;;;;;;4897176;29;20226;-92
2022/06/05 15:55:48;;;;;;;3.20;2.95;;;28.00;75.10;;;;;;4861806;29;20218;-93
2022/06/05 15:58:29;;;;;;;2.58;2.45;;;28.00;74.60;;;;;;4896871;29;20314;-93
2022/06/05 16:01:07;;;;;;;3.42;3.13;;;27.90;73.40;;;;;;4896736;29;20272;-93
2022/06/05 16:04:06;;;;;;;2.90;2.70;;;27.80;73.80;;;;;;4892451;29;20235;-92
2022/06/05 16:06:40;;;;;;;4.35;3.30;;;27.60;74.70;;;;;;4898138;29;20207;-93
2022/06/05 16:09:16;;;;;;;9.07;3.60;;;27.60;75.10;;;;;;4900300;29;20239;-92
2022/06/05 16:11:51;;;;;;;3.45;3.22;;;27.60;75.50;;;;;;4900403;29;20239;-93
2022/06/05 16:14:39;;;;;;;5.15;4.05;;;27.60;75.50;;;;;;4901161;29;20211;-94
2022/06/05 16:17:52;;;;;;;4.00;3.13;;;27.70;75.50;;;;;;4900297;29;20400;-93
2022/06/05 16:20:42;;;;;;;3.58;3.28;;;27.70;75.70;;;;;;4900097;29;20207;-93
2022/06/05 16:23:30;;;;;;;3.50;3.20;;;27.80;76.70;;;;;;4900185;29;20227;-91
2022/06/05 16:26:06;;;;;;;4.35;3.95;;;27.80;76.10;;;;;;4900046;29;20222;-92
2022/06/05 16:29:32;;;;;;;4.47;4.07;;;27.80;76.60;;;;;;4900121;29;20238;-93
2022/06/05 16:32:47;;;;;;;4.07;3.65;;;27.70;76.40;;;;;;4899542;29;20211;-93
2022/06/05 16:38:31;;;;;;;3.63;3.33;;;27.60;76.30;;;;;;4899654;29;20231;-93
2022/06/05 16:44:27;;;;;;;4.50;4.10;;;27.40;77.10;;;;;;4898646;29;20254;-92
2022/06/05 16:46:56;;;;;;;3.70;3.40;;;27.40;77.50;;;;;;4899401;29;20262;-94
2022/06/05 16:49:48;;;;;;;3.33;3.10;;;27.40;77.90;;;;;;4899897;29;20250;-92
2022/06/05 16:52:32;;;;;;;3.67;3.38;;;27.40;78.80;;;;;;4898877;29;20218;-92
2022/06/05 16:55:15;;;;;;;4.38;3.97;;;27.50;78.80;;;;;;4899596;29;20215;-92
2022/06/05 16:57:49;;;;;;;5.05;4.05;;;27.50;79.00;;;;;;4899052;29;20252;-91
2022/06/05 17:00:27;;;;;;;4.35;3.95;;;27.50;80.00;;;;;;4899296;29;20234;-92
2022/06/05 17:03:45;;;;;;;4.85;4.18;;;27.50;80.40;;;;;;4899008;29;20206;-93
2022/06/05 17:09:33;;;;;;;3.88;3.58;;;27.50;81.40;;;;;;4899336;29;20235;-93
2022/06/05 17:12:44;;;;;;;4.82;3.97;;;27.50;81.70;;;;;;4898918;29;20207;-91
2022/06/05 17:15:43;;;;;;;4.93;3.90;;;27.40;82.20;;;;;;4823386;29;20236;-93
2022/06/05 17:18:24;;;;;;;3.83;3.53;;;27.30;82.90;;;;;;4896482;29;20231;-93
2022/06/05 17:20:57;;;;;;;4.40;4.00;;;27.30;83.60;;;;;;4898948;29;20230;-92
2022/06/05 17:23:34;;;;;;;5.13;3.63;;;27.20;84.30;;;;;;4899288;29;20231;-93
2022/06/05 17:26:21;;;;;;;3.90;3.60;;;27.10;85.20;;;;;;4898745;29;20217;-92
2022/06/05 17:29:18;;;;;;;7.50;5.20;;;27.10;85.70;;;;;;4899001;29;20254;-92
2022/06/05 17:32:12;;;;;;;4.15;3.85;;;27.10;86.50;;;;;;4898504;29;20215;-92
2022/06/05 17:35:07;;;;;;;4.75;4.35;;;27.10;87.60;;;;;;4899139;29;20221;-92
2022/06/05 17:38:03;;;;;;;4.82;4.43;;;26.90;88.50;;;;;;4898731;29;20214;-92
2022/06/05 17:40:45;;;;;;;5.22;4.82;;;26.80;90.00;;;;;;4898739;29;20206;-92
2022/06/05 17:43:25;;;;;;;4.88;4.40;;;26.70;90.30;;;;;;4898826;29;20286;-93
2022/06/05 17:46:04;;;;;;;4.95;4.55;;;26.70;90.90;;;;;;4898807;29;20266;-91
2022/06/05 17:48:49;;;;;;;4.43;4.13;;;26.60;91.20;;;;;;4898517;29;20235;-92
2022/06/05 17:54:52;;;;;;;5.38;4.88;;;26.50;92.30;;;;;;4888481;29;20203;-94
2022/06/05 17:57:28;;;;;;;5.60;5.18;;;26.40;93.30;;;;;;4898560;29;20223;-92
2022/06/05 18:00:16;;;;;;;5.03;4.63;;;26.30;93.60;;;;;;4898381;29;20229;-92
2022/06/05 18:03:09;;;;;;;5.95;5.45;;;26.30;94.60;;;;;;4898482;29;20220;-92
2022/06/05 18:06:19;;;;;;;6.30;5.70;;;26.20;95.60;;;;;;4898760;29;20207;-93
2022/06/05 18:12:14;;;;;;;6.25;5.75;;;26.10;98.00;;;;;;4898000;29;20278;-95
2022/06/05 18:14:50;;;;;;;5.85;5.35;;;26.00;99.10;;;;;;4880903;29;20200;-91
2022/06/05 18:17:23;;;;;;;7.38;6.68;;;26.00;99.90;;;;;;4880108;29;20204;-90
2022/06/05 18:19:52;;;;;;;6.53;5.93;;;26.00;99.90;;;;;;4880383;29;20204;-90
2022/06/05 18:22:35;;;;;;;7.85;5.90;;;25.80;99.90;;;;;;4888720;29;20207;-90
2022/06/05 18:25:45;;;;;;;5.28;4.88;;;25.80;99.90;;;;;;4883405;29;20231;-90
2022/06/05 18:28:27;;;;;;;6.53;5.93;;;25.80;99.90;;;;;;4892373;29;20231;-88
2022/06/05 18:31:01;;;;;;;5.75;5.25;;;25.70;99.90;;;;;;4888263;29;20203;-88
2022/06/05 18:33:54;;;;;;;9.73;6.03;;;25.70;99.90;;;;;;4886147;29;20286;-88
2022/06/05 18:39:17;;;;;;;7.00;5.75;;;25.60;99.90;;;;;;4888430;29;20315;-90
2022/06/05 18:41:55;;;;;;;6.28;5.68;;;25.50;99.90;;;;;;4879711;29;20207;-91
2022/06/05 18:44:36;;;;;;;6.28;5.35;;;25.50;99.90;;;;;;4879548;29;20251;-91
2022/06/05 18:47:13;;;;;;;8.10;5.50;;;25.50;99.90;;;;;;4879727;29;20232;-86
2022/06/05 18:53:30;;;;;;;5.72;5.18;;;25.40;99.90;;;;;;4869262;29;20216;-88
2022/06/05 18:55:59;;;;;;;5.57;5.07;;;25.40;99.90;;;;;;4878949;29;20219;-89
2022/06/05 18:58:34;;;;;;;5.45;5.05;;;25.30;99.90;;;;;;4878944;29;20236;-88
2022/06/05 19:01:30;;;;;;;5.70;5.00;;;25.30;99.90;;;;;;4879045;29;20267;-88
2022/06/05 19:04:14;;;;;;;6.68;5.25;;;25.20;99.90;;;;;;4878740;29;20247;-88
2022/06/05 19:06:45;;;;;;;5.07;4.63;;;25.20;99.90;;;;;;4878906;29;20235;-89
2022/06/05 19:09:17;;;;;;;4.88;4.47;;;25.10;99.90;;;;;;4878808;29;20287;-89
2022/06/05 19:11:52;;;;;;;4.88;4.47;;;25.10;99.90;;;;;;4879255;29;20226;-89
2022/06/05 19:14:25;;;;;;;5.30;4.90;;;25.10;99.90;;;;;;4881470;29;20212;-89
2022/06/05 19:17:10;;;;;;;4.22;3.92;;;25.00;99.90;;;;;;4879031;29;20250;-89
2022/06/05 19:19:47;;;;;;;5.00;4.60;;;25.00;99.90;;;;;;4878594;29;20246;-89
2022/06/05 19:22:20;;;;;;;6.60;5.53;;;24.90;99.90;;;;;;4878824;29;20250;-89
2022/06/05 19:24:53;;;;;;;4.68;4.30;;;24.90;99.90;;;;;;4878774;29;20297;-88
2022/06/05 19:27:26;;;;;;;5.38;4.88;;;24.90;99.90;;;;;;4879015;29;20239;-89
2022/06/05 19:29:57;;;;;;;5.97;5.47;;;24.90;99.90;;;;;;4879349;29;20216;-89
2022/06/05 19:32:28;;;;;;;5.13;4.60;;;24.80;99.90;;;;;;4878465;29;20212;-89
2022/06/05 19:35:02;;;;;;;4.45;4.15;;;24.80;99.90;;;;;;4878670;29;20207;-89
2022/06/05 19:40:24;;;;;;;5.47;4.95;;;24.80;99.90;;;;;;4881120;29;20216;-88
2022/06/05 19:42:58;;;;;;;4.68;4.25;;;24.70;99.90;;;;;;4882268;29;20295;-89
2022/06/05 19:45:37;;;;;;;4.43;4.03;;;24.70;99.90;;;;;;4881717;29;20235;-88
2022/06/05 19:48:13;;;;;;;4.90;4.50;;;24.70;99.90;;;;;;4881975;29;20227;-89
2022/06/05 19:50:47;;;;;;;4.82;4.43;;;24.70;99.90;;;;;;4881550;29;20227;-89
2022/06/05 19:53:21;;;;;;;4.47;4.13;;;24.70;99.90;;;;;;4882417;29;20224;-90
2022/06/05 19:55:54;;;;;;;5.03;4.60;;;24.60;99.90;;;;;;4882001;29;20215;-89
2022/06/05 19:58:27;;;;;;;5.38;4.50;;;24.60;99.90;;;;;;4882037;29;20247;-89
2022/06/05 20:01:28;;;;;;;7.47;4.90;;;24.60;99.90;;;;;;4881645;29;20250;-89
2022/06/05 20:04:00;;;;;;;5.00;4.60;;;24.50;99.90;;;;;;4879768;29;20252;-90
2022/06/05 20:06:38;;;;;;;4.53;4.10;;;24.50;99.90;;;;;;4881857;29;20271;-89
2022/06/05 20:09:20;;;;;;;4.97;4.55;;;24.50;99.90;;;;;;4881884;29;20227;-89
2022/06/05 20:12:31;;;;;;;6.22;4.60;;;24.50;99.90;;;;;;4881439;29;20212;-89
2022/06/05 20:15:30;;;;;;;9.63;5.00;;;24.50;99.90;;;;;;4871684;29;20258;-89
2022/06/05 20:18:20;;;;;;;3.20;2.58;;;24.40;99.90;;;;;;4881354;29;20227;-89
2022/06/05 20:20:51;;;;;;;2.20;2.00;;;24.20;99.90;;;;;;4881473;29;20239;-89
2022/06/05 20:23:33;;;;;;;1.60;1.20;;;23.70;99.90;;;;;;4881704;29;20245;-89
2022/06/05 20:26:10;;;;;;;1.30;1.20;;;23.00;99.90;;;;;;4880885;29;20231;-89
2022/06/05 20:28:48;;;;;;;0.80;0.80;;;22.40;99.90;;;;;;4881198;29;20258;-89
2022/06/05 20:31:26;;;;;;;1.27;1.17;;;22.00;99.90;;;;;;4880765;29;20214;-88
2022/06/05 20:34:17;;;;;;;0.98;0.95;;;21.40;99.90;;;;;;4881713;29;20276;-89
2022/06/05 20:37:00;;;;;;;0.80;0.80;;;20.70;99.90;;;;;;4881005;29;20219;-89
2022/06/05 20:39:36;;;;;;;3.05;1.23;;;20.20;99.90;;;;;;4881154;29;20238;-91
2022/06/05 20:42:13;;;;;;;1.48;1.38;;;19.70;99.90;;;;;;4881101;29;20207;-89
2022/06/05 20:45:13;;;;;;;11.50;1.77;;;19.00;99.90;;;;;;4880676;29;20242;-89
2022/06/05 20:47:48;;;;;;;2.67;1.50;;;18.60;99.90;;;;;;4876704;29;20307;-89
2022/06/05 20:50:24;;;;;;;1.05;1.05;;;18.20;99.90;;;;;;4880838;29;20211;-90
2022/06/05 20:52:58;;;;;;;1.20;1.10;;;18.10;99.90;;;;;;4880359;29;20263;-90
2022/06/05 20:55:27;;;;;;;8.80;1.73;;;17.90;99.90;;;;;;4880874;29;20302;-91
2022/06/05 20:58:05;;;;;;;1.42;1.30;;;17.90;99.90;;;;;;4880615;29;20231;-90
2022/06/05 21:00:39;;;;;;;1.30;1.20;;;17.80;99.90;;;;;;4881213;29;20216;-90
2022/06/05 21:08:47;;;;;;;1.30;1.20;;;17.60;99.90;;;;;;4880556;29;20284;-90
2022/06/05 21:16:58;;;;;;;1.80;1.70;;;17.50;99.90;;;;;;4880631;29;20298;-91
2022/06/05 21:19:32;;;;;;;1.38;1.15;;;17.50;99.90;;;;;;4880405;29;20235;-87
2022/06/05 21:22:04;;;;;;;1.75;1.65;;;17.40;99.90;;;;;;4880043;29;20222;-88
2022/06/05 21:24:37;;;;;;;1.70;1.40;;;17.40;99.90;;;;;;4880396;29;20215;-88
2022/06/05 21:27:14;;;;;;;1.58;1.48;;;17.30;99.90;;;;;;4880505;29;20256;-91
2022/06/05 21:29:44;;;;;;;1.65;1.38;;;17.20;99.90;;;;;;4880297;29;20318;-92
2022/06/05 21:32:40;;;;;;;1.20;1.20;;;17.20;99.90;;;;;;4880247;29;20237;-92
2022/06/05 21:35:25;;;;;;;1.23;1.13;;;17.10;99.90;;;;;;4880206;29;20215;-92
2022/06/05 21:38:01;;;;;;;1.20;1.20;;;17.00;99.90;;;;;;4879838;29;20323;-92
2022/06/05 21:40:34;;;;;;;1.65;1.42;;;17.00;99.90;;;;;;4880321;29;20220;-92
2022/06/05 21:43:06;;;;;;;1.65;1.30;;;17.00;99.90;;;;;;4879921;29;20211;-92
2022/06/05 21:45:35;;;;;;;1.60;1.50;;;17.00;99.90;;;;;;4879620;29;20231;-92
2022/06/05 21:48:09;;;;;;;1.70;1.42;;;17.00;99.90;;;;;;4880108;29;20232;-92
2022/06/05 21:50:41;;;;;;;1.30;1.20;;;17.00;99.90;;;;;;4880207;29;20245;-92
2022/06/05 21:53:12;;;;;;;1.13;1.13;;;17.00;99.90;;;;;;4880038;29;20216;-92
2022/06/05 21:55:46;;;;;;;1.17;1.17;;;17.00;99.90;;;;;;4880000;29;20235;-91
2022/06/05 21:58:17;;;;;;;1.38;1.30;;;16.90;99.90;;;;;;4879617;29;20235;-90
2022/06/05 22:03:32;;;;;;;1.67;1.58;;;16.90;99.90;;;;;;4871280;29;20211;-92
2022/06/05 22:06:05;;;;;;;1.40;1.30;;;16.90;99.90;;;;;;4879365;29;20272;-92
2022/06/05 22:08:36;;;;;;;1.42;1.30;;;16.90;99.90;;;;;;4879676;29;20321;-93
2022/06/05 22:11:07;;;;;;;1.30;1.20;;;16.90;99.90;;;;;;4879263;29;20212;-93
2022/06/05 22:13:36;;;;;;;1.70;1.30;;;16.90;99.90;;;;;;4879627;29;20215;-92
2022/06/05 22:16:06;;;;;;;1.33;1.13;;;16.90;99.90;;;;;;4879462;29;20208;-94
2022/06/05 22:18:35;;;;;;;1.33;1.27;;;16.90;99.90;;;;;;4879105;29;20235;-93
2022/06/05 22:21:06;;;;;;;2.33;1.30;;;16.90;99.90;;;;;;4879176;29;20203;-92
2022/06/05 22:23:34;;;;;;;1.25;1.15;;;16.90;99.90;;;;;;4879545;29;20235;-93
2022/06/05 22:26:05;;;;;;;1.38;1.27;;;16.90;99.90;;;;;;4879475;29;20231;-92
2022/06/05 22:28:33;;;;;;;1.13;1.10;;;16.90;99.90;;;;;;4879167;29;20238;-92
2022/06/05 22:31:02;;;;;;;1.42;1.33;;;16.90;99.90;;;;;;4879493;29;20211;-92
2022/06/05 22:33:31;;;;;;;2.15;1.02;;;16.90;99.90;;;;;;4879593;29;20207;-93
2022/06/05 22:36:00;;;;;;;1.40;1.30;;;16.90;99.90;;;;;;4879208;29;20227;-92
2022/06/05 22:38:30;;;;;;;1.15;1.10;;;16.90;99.90;;;;;;4879374;29;20281;-92
2022/06/05 22:40:59;;;;;;;1.38;1.20;;;17.00;99.90;;;;;;4878832;29;20237;-92
2022/06/05 22:43:27;;;;;;;0.93;0.93;;;17.00;99.90;;;;;;4878812;29;20212;-91
2022/06/05 22:45:56;;;;;;;2.15;1.10;;;17.00;99.90;;;;;;4879750;29;20211;-92
2022/06/05 22:48:24;;;;;;;1.67;1.35;;;16.90;99.90;;;;;;4879302;29;20255;-91
2022/06/05 22:50:58;;;;;;;1.05;0.98;;;16.90;99.90;;;;;;4878953;29;20211;-91
2022/06/05 22:53:27;;;;;;;0.95;0.95;;;16.90;99.90;;;;;;4878961;29;20230;-91
2022/06/05 22:55:57;;;;;;;3.35;1.33;;;16.80;99.90;;;;;;4878800;29;20223;-91
2022/06/05 22:58:26;;;;;;;1.45;1.35;;;16.90;99.90;;;;;;4878841;29;20241;-91
2022/06/05 23:00:54;;;;;;;1.30;1.20;;;16.80;99.90;;;;;;4878830;29;20231;-91
2022/06/05 23:03:23;;;;;;;1.38;1.27;;;16.80;99.90;;;;;;4878737;29;20226;-90
2022/06/05 23:05:52;;;;;;;2.80;1.40;;;16.80;99.90;;;;;;4878641;29;20263;-91
2022/06/05 23:08:25;;;;;;;1.33;1.23;;;16.80;99.90;;;;;;4879150;29;20258;-90
2022/06/05 23:10:54;;;;;;;1.67;1.58;;;16.80;99.90;;;;;;4878652;29;20208;-92
2022/06/05 23:13:24;;;;;;;8.30;1.65;;;16.70;99.90;;;;;;4879012;29;20227;-91
2022/06/05 23:15:52;;;;;;;0.98;0.98;;;16.70;99.90;;;;;;4880570;29;20208;-91
2022/06/05 23:18:24;;;;;;;4.63;1.50;;;16.80;99.90;;;;;;4882453;29;20224;-92
2022/06/05 23:20:52;;;;;;;1.10;1.05;;;16.70;99.90;;;;;;4882463;29;20215;-91
2022/06/05 23:23:29;;;;;;;1.63;1.40;;;16.70;99.90;;;;;;4882704;29;20294;-91
2022/06/05 23:26:02;;;;;;;1.58;1.48;;;16.70;99.90;;;;;;4882273;29;20203;-92
2022/06/05 23:28:39;;;;;;;1.00;1.00;;;16.70;99.90;;;;;;4882104;29;20243;-92
2022/06/05 23:31:08;;;;;;;3.10;1.83;;;16.70;99.90;;;;;;4882739;29;20250;-92
2022/06/05 23:33:38;;;;;;;8.98;1.98;;;16.70;99.90;;;;;;4882358;29;20204;-92
2022/06/05 23:36:11;;;;;;;4.20;1.90;;;16.70;99.90;;;;;;4882692;29;20207;-92
2022/06/05 23:38:41;;;;;;;2.17;1.67;;;16.70;99.90;;;;;;4883199;29;20287;-92
2022/06/05 23:41:13;;;;;;;1.85;1.50;;;16.70;99.90;;;;;;4887463;29;20208;-92
2022/06/05 23:43:43;;;;;;;1.75;1.63;;;16.70;99.90;;;;;;4889135;29;20236;-92
2022/06/05 23:46:14;;;;;;;1.60;1.48;;;16.70;99.90;;;;;;4891867;29;20214;-93
2022/06/05 23:48:42;;;;;;;2.10;1.67;;;16.60;99.90;;;;;;4882397;29;20234;-93
2022/06/05 23:51:12;;;;;;;1.45;1.30;;;16.60;99.90;;;;;;4881946;29;20215;-92
2022/06/05 23:53:42;;;;;;;1.85;1.70;;;16.60;99.90;;;;;;4882276;29;20235;-92
2022/06/05 23:56:14;;;;;;;1.60;1.50;;;16.70;99.90;;;;;;4882359;29;20231;-92
2022/06/05 23:58:44;;;;;;;2.85;1.70;;;16.60;99.90;;;;;;4882642;29;20262;-92
